createdAt,value
2023-05-10T00:00:15.861Z,72.38
2023-05-10T00:01:15.870Z,72.18
2023-05-10T00:02:15.919Z,72.15
2023-05-10T00:03:16.002Z,72.11
2023-05-10T00:04:15.956Z,72.42
2023-05-10T00:05:16.002Z,72.52
2023-05-10T00:06:16.011Z,72.58
2023-05-10T00:07:16.044Z,72.94
2023-05-10T00:08:16.052Z,72.85
2023-05-10T00:09:16.057Z,73.42
2023-05-10T00:10:16.270Z,73.01
2023-05-10T00:11:16.117Z,73.14
2023-05-10T00:12:16.159Z,72.53
2023-05-10T00:13:16.254Z,72.57
2023-05-10T00:14:16.241Z,72.86
2023-05-10T00:15:16.293Z,72.73
2023-05-10T00:16:16.350Z,72.83
2023-05-10T00:17:16.406Z,72.67
2023-05-10T00:18:16.390Z,72.55
2023-05-10T00:19:16.411Z,72.50
2023-05-10T00:20:16.560Z,72.92
2023-05-10T00:21:16.494Z,72.96
2023-05-10T00:22:16.567Z,73.02
2023-05-10T00:23:16.641Z,72.96
2023-05-10T00:24:16.647Z,72.78
2023-05-10T00:25:16.733Z,72.38
2023-05-10T00:26:16.747Z,72.34
2023-05-10T00:27:16.794Z,72.35
2023-05-10T00:28:16.828Z,72.35
2023-05-10T00:29:16.893Z,72.29
2023-05-10T00:30:17.039Z,72.54
2023-05-10T00:31:17.040Z,72.76
2023-05-10T00:32:17.151Z,72.89
2023-05-10T00:33:16.974Z,72.85
2023-05-10T00:34:16.988Z,73.03
2023-05-10T00:35:17.010Z,73.15
2023-05-10T00:36:17.032Z,72.85
2023-05-10T00:37:17.058Z,72.89
2023-05-10T00:38:17.070Z,72.74
2023-05-10T00:39:17.058Z,72.73
2023-05-10T00:40:17.336Z,72.61
2023-05-10T00:41:17.179Z,72.36
2023-05-10T00:42:17.185Z,72.50
2023-05-10T00:43:17.219Z,72.60
2023-05-10T00:44:17.233Z,72.64
2023-05-10T00:45:17.256Z,72.52
2023-05-10T00:46:17.321Z,72.49
2023-05-10T00:47:17.290Z,72.16
2023-05-10T00:48:17.361Z,72.05
2023-05-10T00:49:17.329Z,71.90
2023-05-10T00:50:17.599Z,71.60
2023-05-10T00:51:17.384Z,71.83
2023-05-10T00:52:17.441Z,72.06
2023-05-10T00:53:17.431Z,72.18
2023-05-10T00:54:17.424Z,72.13
2023-05-10T00:55:17.437Z,71.94
2023-05-10T00:56:17.457Z,71.92
2023-05-10T00:57:17.478Z,71.63
2023-05-10T00:58:17.547Z,71.24
2023-05-10T00:59:17.622Z,71.54
2023-05-10T01:00:17.750Z,71.32
2023-05-10T01:01:17.711Z,70.99
2023-05-10T01:02:17.756Z,70.99
2023-05-10T01:03:17.818Z,70.69
2023-05-10T01:04:17.761Z,70.61
2023-05-10T01:05:17.899Z,70.54
2023-05-10T01:06:17.855Z,70.57
2023-05-10T01:07:17.880Z,70.88
2023-05-10T01:08:17.881Z,70.57
2023-05-10T01:09:17.912Z,70.62
2023-05-10T01:10:18.155Z,70.24
2023-05-10T01:11:17.941Z,70.11
2023-05-10T01:12:18.071Z,70.47
2023-05-10T01:13:18.098Z,70.16
2023-05-10T01:14:18.103Z,69.91
2023-05-10T01:15:18.223Z,69.79
2023-05-10T01:16:18.212Z,69.64
2023-05-10T01:17:18.265Z,69.45
2023-05-10T01:28:51.371Z,69.57
2023-05-10T01:29:58.902Z,69.29
2023-05-10T01:30:52.015Z,69.02
2023-05-10T01:31:51.042Z,68.75
2023-05-10T01:32:51.072Z,68.27
2023-05-10T01:33:51.009Z,68.14
2023-05-10T01:34:50.966Z,67.98
2023-05-10T01:35:51.005Z,68.04
2023-05-10T01:36:50.950Z,67.99
2023-05-10T01:37:50.966Z,68.11
2023-05-10T01:38:50.939Z,68.24
2023-05-10T01:39:50.934Z,68.58
2023-05-10T01:40:50.915Z,68.94
2023-05-10T01:41:50.898Z,68.77
2023-05-10T01:42:50.907Z,68.47
2023-05-10T01:43:50.935Z,68.56
2023-05-10T01:44:50.888Z,68.48
2023-05-10T01:45:50.914Z,68.44
2023-05-10T01:46:50.975Z,68.68
2023-05-10T01:47:51.075Z,68.89
2023-05-10T01:48:51.071Z,69.13
2023-05-10T01:49:51.086Z,69.26
2023-05-10T01:50:51.105Z,68.93
2023-05-10T01:51:51.172Z,68.87
2023-05-10T01:52:51.294Z,68.99
2023-05-10T01:53:51.289Z,68.84
2023-05-10T01:54:51.333Z,68.32
2023-05-10T01:55:51.473Z,68.38
2023-05-10T01:56:51.477Z,68.13
2023-05-10T01:57:51.515Z,68.10
2023-05-10T01:58:51.526Z,68.18
2023-05-10T01:59:51.597Z,68.29
2023-05-10T02:00:51.643Z,68.47
2023-05-10T02:01:51.620Z,68.55
2023-05-10T02:02:51.722Z,68.49
2023-05-10T02:03:51.727Z,68.40
2023-05-10T02:04:51.746Z,68.43
2023-05-10T02:05:51.771Z,68.21
2023-05-10T02:06:51.827Z,68.07
2023-05-10T02:07:51.850Z,68.01
2023-05-10T02:08:51.918Z,68.06
2023-05-10T02:09:51.942Z,68.41
2023-05-10T02:10:52.035Z,68.77
2023-05-10T02:11:52.047Z,69.02
2023-05-10T02:12:52.121Z,69.13
2023-05-10T02:13:52.175Z,69.72
2023-05-10T02:14:52.242Z,69.87
2023-05-10T02:15:52.288Z,70.36
2023-05-10T02:16:52.364Z,70.72
2023-05-10T02:17:52.360Z,70.91
2023-05-10T02:18:52.409Z,71.30
2023-05-10T02:19:52.435Z,71.11
2023-05-10T02:20:52.506Z,70.56
2023-05-10T02:21:52.561Z,70.22
2023-05-10T02:22:52.592Z,70.25
2023-05-10T02:23:52.722Z,70.23
2023-05-10T02:24:52.807Z,70.15
2023-05-10T02:25:52.765Z,70.00
2023-05-10T02:26:52.809Z,69.96
2023-05-10T02:27:52.916Z,69.99
2023-05-10T02:28:52.933Z,70.23
2023-05-10T02:29:52.955Z,70.77
2023-05-10T02:30:52.993Z,71.22
2023-05-10T02:31:53.077Z,71.56
2023-05-10T02:32:53.066Z,71.74
2023-05-10T02:33:53.049Z,71.81
2023-05-10T02:34:53.084Z,71.58
2023-05-10T02:35:53.024Z,71.53
2023-05-10T02:36:53.100Z,71.83
2023-05-10T02:37:53.115Z,71.61
2023-05-10T02:38:53.201Z,71.63
2023-05-10T02:39:53.245Z,71.87
2023-05-10T02:40:53.244Z,71.91
2023-05-10T02:41:53.279Z,72.33
2023-05-10T02:42:53.267Z,72.48
2023-05-10T02:43:53.318Z,72.05
2023-05-10T02:44:53.317Z,72.18
2023-05-10T02:45:53.367Z,71.86
2023-05-10T02:46:53.343Z,72.05
2023-05-10T02:47:53.399Z,72.48
2023-05-10T02:48:54.413Z,73.23
2023-05-10T02:49:53.529Z,73.46
2023-05-10T02:50:53.541Z,73.42
2023-05-10T02:51:53.531Z,73.08
2023-05-10T02:52:53.546Z,72.64
2023-05-10T02:53:54.407Z,72.37
2023-05-10T02:54:53.572Z,72.06
2023-05-10T02:55:53.635Z,72.45
2023-05-10T02:56:53.639Z,72.62
2023-05-10T02:57:53.642Z,72.19
2023-05-10T02:58:53.658Z,71.97
2023-05-10T02:59:53.644Z,71.81
2023-05-10T03:00:53.693Z,71.80
2023-05-10T03:01:53.702Z,71.68
2023-05-10T03:02:53.720Z,71.42
2023-05-10T03:03:53.720Z,70.97
2023-05-10T03:04:53.708Z,71.08
2023-05-10T03:05:53.683Z,71.20
2023-05-10T03:06:53.697Z,71.11
2023-05-10T03:07:53.714Z,71.37
2023-05-10T03:08:53.723Z,71.86
2023-05-10T03:09:53.736Z,71.66
2023-05-10T03:10:53.793Z,71.75
2023-05-10T03:11:53.839Z,71.59
2023-05-10T03:12:53.828Z,71.72
2023-05-10T03:13:53.811Z,71.76
2023-05-10T03:14:53.840Z,71.60
2023-05-10T03:15:53.859Z,71.53
2023-05-10T03:16:53.884Z,71.18
2023-05-10T03:17:53.981Z,71.11
2023-05-10T03:18:54.007Z,71.88
2023-05-10T03:19:53.971Z,72.10
2023-05-10T03:20:53.966Z,72.21
2023-05-10T03:21:54.039Z,72.62
2023-05-10T03:22:54.087Z,72.86
2023-05-10T03:23:54.179Z,72.87
2023-05-10T03:24:54.263Z,72.73
2023-05-10T03:25:54.194Z,72.59
2023-05-10T03:26:54.204Z,72.41
2023-05-10T03:27:54.368Z,72.83
2023-05-10T03:28:54.325Z,72.99
2023-05-10T03:29:54.381Z,72.78
2023-05-10T03:30:54.385Z,72.85
2023-05-10T03:31:54.509Z,72.65
2023-05-10T03:32:54.446Z,72.35
2023-05-10T03:33:54.468Z,72.24
2023-05-10T03:34:54.518Z,72.34
2023-05-10T03:35:54.473Z,71.97
2023-05-10T03:36:54.553Z,72.03
2023-05-10T03:37:54.550Z,71.93
2023-05-10T03:38:54.702Z,72.17
2023-05-10T03:39:54.668Z,72.32
2023-05-10T03:40:54.729Z,72.71
2023-05-10T03:41:54.742Z,72.72
2023-05-10T03:42:54.752Z,72.81
2023-05-10T03:43:55.453Z,72.84
2023-05-10T03:44:54.788Z,72.47
2023-05-10T03:45:54.879Z,71.83
2023-05-10T03:46:54.904Z,72.01
2023-05-10T03:47:55.018Z,72.03
2023-05-10T03:48:54.925Z,72.88
2023-05-10T03:49:54.995Z,73.13
2023-05-10T03:50:55.023Z,73.11
2023-05-10T03:51:55.093Z,72.95
2023-05-10T03:52:55.141Z,72.83
2023-05-10T03:53:55.158Z,72.89
2023-05-10T03:54:55.196Z,72.80
2023-05-10T03:55:55.189Z,72.54
2023-05-10T03:56:55.244Z,71.89
2023-05-10T03:57:55.295Z,71.68
2023-05-10T03:58:55.374Z,71.67
2023-05-10T03:59:55.383Z,71.95
2023-05-10T04:00:55.392Z,72.45
2023-05-10T04:01:55.438Z,72.21
2023-05-10T04:02:55.583Z,71.95
2023-05-10T04:03:56.040Z,71.76
2023-05-10T04:04:55.572Z,71.55
2023-05-10T04:05:55.688Z,71.71
2023-05-10T04:06:55.608Z,71.35
2023-05-10T04:07:55.679Z,71.32
2023-05-10T04:08:55.744Z,71.25
2023-05-10T04:09:55.740Z,70.94
2023-05-10T04:10:55.725Z,70.37
2023-05-10T04:11:55.712Z,70.17
2023-05-10T04:12:55.797Z,69.86
2023-05-10T04:13:55.748Z,69.88
2023-05-10T04:14:55.779Z,68.10
2023-05-10T04:15:55.856Z,66.79
2023-05-10T04:16:55.923Z,66.89
2023-05-10T04:17:55.937Z,67.07
2023-05-10T04:18:55.954Z,67.58
2023-05-10T04:19:55.943Z,67.59
2023-05-10T04:20:55.999Z,68.58
2023-05-10T04:21:56.040Z,69.10
2023-05-10T04:22:56.095Z,69.33
2023-05-10T04:23:56.087Z,69.74
2023-05-10T04:24:56.092Z,69.68
2023-05-10T04:25:56.158Z,68.34
2023-05-10T04:26:57.736Z,68.23
2023-05-10T04:27:56.260Z,66.57
2023-05-10T04:28:56.492Z,64.67
2023-05-10T04:29:56.342Z,65.16
2023-05-10T04:30:56.422Z,65.22
2023-05-10T04:31:56.429Z,66.37
2023-05-10T04:32:56.476Z,67.94
2023-05-10T04:33:56.938Z,69.05
2023-05-10T04:34:56.496Z,68.91
2023-05-10T04:35:56.554Z,68.55
2023-05-10T04:36:56.616Z,68.60
2023-05-10T04:37:56.659Z,68.01
2023-05-10T04:38:56.752Z,67.70
2023-05-10T04:39:56.727Z,67.44
2023-05-10T04:40:56.749Z,67.44
2023-05-10T04:41:56.838Z,67.32
2023-05-10T04:42:56.788Z,67.38
2023-05-10T04:43:56.804Z,67.55
2023-05-10T04:44:56.784Z,67.37
2023-05-10T04:45:56.862Z,67.32
2023-05-10T04:46:56.859Z,67.20
2023-05-10T04:47:56.951Z,66.70
2023-05-10T04:48:56.947Z,66.62
2023-05-10T04:49:56.986Z,66.75
2023-05-10T04:50:57.063Z,67.04
2023-05-10T04:51:57.060Z,67.31
2023-05-10T04:52:57.176Z,67.17
2023-05-10T04:54:05.151Z,66.72
2023-05-10T04:54:58.129Z,66.76
2023-05-10T04:55:57.103Z,66.54
2023-05-10T04:56:57.099Z,66.41
2023-05-10T04:57:57.091Z,66.39
2023-05-10T04:58:57.134Z,66.22
2023-05-10T04:59:57.119Z,66.33
2023-05-10T05:00:57.117Z,66.40
2023-05-10T05:01:57.189Z,66.17
2023-05-10T05:02:57.163Z,66.09
2023-05-10T05:03:57.226Z,66.07
2023-05-10T05:04:57.092Z,66.22
2023-05-10T05:05:57.081Z,66.24
2023-05-10T05:06:57.027Z,66.46
2023-05-10T05:07:57.115Z,67.35
2023-05-10T05:09:00.549Z,67.51
2023-05-10T05:09:57.112Z,67.63
2023-05-10T05:10:57.109Z,68.08
2023-05-10T05:11:57.091Z,67.88
2023-05-10T05:12:57.150Z,67.55
2023-05-10T05:13:57.060Z,67.49
2023-05-10T05:14:57.095Z,67.55
2023-05-10T05:15:57.096Z,68.30
2023-05-10T05:16:57.060Z,67.88
2023-05-10T05:17:57.078Z,67.78
2023-05-10T05:18:57.052Z,68.43
2023-05-10T05:19:57.093Z,68.35
2023-05-10T05:20:57.031Z,68.33
2023-05-10T05:21:57.037Z,68.80
2023-05-10T05:22:57.019Z,68.33
2023-05-10T05:23:57.018Z,68.32
2023-05-10T05:24:57.993Z,68.53
2023-05-10T05:25:57.035Z,68.31
2023-05-10T05:26:57.044Z,68.05
2023-05-10T05:27:57.077Z,68.10
2023-05-10T05:28:57.071Z,68.33
2023-05-10T05:29:56.975Z,68.37
2023-05-10T05:30:57.003Z,68.52
2023-05-10T05:31:56.989Z,68.02
2023-05-10T05:32:57.192Z,67.96
2023-05-10T05:33:57.043Z,67.53
2023-05-10T05:34:57.139Z,66.90
2023-05-10T05:35:56.977Z,66.75
2023-05-10T05:36:56.946Z,66.74
2023-05-10T05:37:56.916Z,67.34
2023-05-10T05:38:56.909Z,67.44
2023-05-10T05:39:56.962Z,66.82
2023-05-10T05:40:56.954Z,66.77
2023-05-10T05:41:56.910Z,67.05
2023-05-10T05:42:56.913Z,66.92
2023-05-10T05:43:56.872Z,66.32
2023-05-10T05:44:56.892Z,66.21
2023-05-10T05:45:56.900Z,65.99
2023-05-10T05:46:56.853Z,66.54
2023-05-10T05:47:56.907Z,66.73
2023-05-10T05:48:56.865Z,66.56
2023-05-10T05:49:56.874Z,66.89
2023-05-10T05:50:56.861Z,66.98
2023-05-10T05:51:56.810Z,67.20
2023-05-10T05:52:56.814Z,67.70
2023-05-10T05:53:56.795Z,67.94
2023-05-10T05:54:56.789Z,68.07
2023-05-10T05:55:56.803Z,68.26
2023-05-10T05:56:57.328Z,67.99
2023-05-10T05:57:56.780Z,67.45
2023-05-10T05:58:56.793Z,67.13
2023-05-10T05:59:56.862Z,66.37
2023-05-10T06:00:56.828Z,66.06
2023-05-10T06:01:57.022Z,65.36
2023-05-10T06:02:57.002Z,65.41
2023-05-10T06:03:57.010Z,65.67
2023-05-10T06:04:57.006Z,65.81
2023-05-10T06:05:57.086Z,66.03
2023-05-10T06:06:57.129Z,67.09
2023-05-10T06:07:57.127Z,67.15
2023-05-10T06:08:57.135Z,66.31
2023-05-10T06:09:57.213Z,66.40
2023-05-10T06:10:57.262Z,66.15
2023-05-10T06:11:57.321Z,66.91
2023-05-10T06:12:57.375Z,67.33
2023-05-10T06:13:57.389Z,68.01
2023-05-10T06:14:57.500Z,68.14
2023-05-10T06:15:57.499Z,67.85
2023-05-10T06:16:58.080Z,68.46
2023-05-10T06:17:57.721Z,68.47
2023-05-10T06:18:57.827Z,68.51
2023-05-10T06:19:57.665Z,68.84
2023-05-10T06:20:57.732Z,68.68
2023-05-10T06:21:57.742Z,68.46
2023-05-10T06:22:57.769Z,68.81
2023-05-10T06:23:57.818Z,68.79
2023-05-10T06:24:57.866Z,68.16
2023-05-10T06:25:57.896Z,67.65
2023-05-10T06:26:57.929Z,67.62
2023-05-10T06:27:57.977Z,68.00
2023-05-10T06:28:58.964Z,68.13
2023-05-10T06:30:09.258Z,68.56
2023-05-10T06:30:59.114Z,68.73
2023-05-10T06:31:58.326Z,68.70
2023-05-10T06:32:58.254Z,68.71
2023-05-10T06:33:58.009Z,68.33
2023-05-10T06:34:58.070Z,67.94
2023-05-10T06:35:58.020Z,67.73
2023-05-10T06:36:58.102Z,67.77
2023-05-10T06:37:58.008Z,67.43
2023-05-10T06:38:58.056Z,66.85
2023-05-10T06:39:58.485Z,66.86
2023-05-10T06:40:57.987Z,66.66
2023-05-10T06:41:57.969Z,67.01
2023-05-10T06:42:58.008Z,66.95
2023-05-10T06:43:57.986Z,66.60
2023-05-10T06:44:58.483Z,66.11
2023-05-10T06:45:58.115Z,66.33
2023-05-10T06:46:58.034Z,66.27
2023-05-10T06:47:58.110Z,66.00
2023-05-10T06:48:58.081Z,65.53
2023-05-10T06:49:58.106Z,65.67
2023-05-10T06:50:58.123Z,65.82
2023-05-10T06:51:59.009Z,65.11
2023-05-10T06:52:58.157Z,65.64
2023-05-10T06:53:59.113Z,65.56
2023-05-10T06:54:58.223Z,65.81
2023-05-10T06:55:58.231Z,65.99
2023-05-10T06:56:58.205Z,65.73
2023-05-10T06:57:58.191Z,65.41
2023-05-10T06:58:58.512Z,65.52
2023-05-10T06:59:58.237Z,65.00
2023-05-10T07:00:58.447Z,65.11
2023-05-10T07:01:58.362Z,65.35
2023-05-10T07:02:59.369Z,65.43
2023-05-10T07:03:58.409Z,65.29
2023-05-10T07:05:00.861Z,65.87
2023-05-10T07:05:58.422Z,66.11
2023-05-10T07:06:58.393Z,65.69
2023-05-10T07:07:58.252Z,66.04
2023-05-10T07:08:58.323Z,66.80
2023-05-10T07:09:58.279Z,66.97
2023-05-10T07:10:58.352Z,67.03
2023-05-10T07:11:58.222Z,66.83
2023-05-10T07:12:58.388Z,66.48
2023-05-10T07:13:58.251Z,66.32
2023-05-10T07:14:58.227Z,66.51
2023-05-10T07:15:58.222Z,66.90
2023-05-10T07:16:58.266Z,66.66
2023-05-10T07:17:58.306Z,66.56
2023-05-10T07:18:58.217Z,66.56
2023-05-10T07:19:58.981Z,66.25
2023-05-10T07:20:58.203Z,65.86
2023-05-10T07:21:58.163Z,65.83
2023-05-10T07:22:58.172Z,65.29
2023-05-10T07:23:58.153Z,65.18
2023-05-10T07:24:58.994Z,65.32
2023-05-10T07:25:58.179Z,64.51
2023-05-10T07:26:58.153Z,65.19
2023-05-10T07:27:58.122Z,65.08
2023-05-10T07:28:58.190Z,65.55
2023-05-10T07:29:58.159Z,64.96
2023-05-10T07:30:58.262Z,65.61
2023-05-10T07:31:59.079Z,65.33
2023-05-10T07:32:59.075Z,65.26
2023-05-10T07:33:58.446Z,64.30
2023-05-10T07:34:58.505Z,64.11
2023-05-10T07:35:58.362Z,64.46
2023-05-10T07:36:58.369Z,63.85
2023-05-10T07:37:58.490Z,64.18
2023-05-10T07:38:58.484Z,64.07
2023-05-10T07:39:58.568Z,63.70
2023-05-10T07:40:58.548Z,63.53
2023-05-10T07:41:58.584Z,63.90
2023-05-10T07:42:58.584Z,63.40
2023-05-10T07:43:58.689Z,63.13
2023-05-10T07:44:58.684Z,63.62
2023-05-10T07:45:58.946Z,63.41
2023-05-10T07:46:58.713Z,64.01
2023-05-10T07:47:58.827Z,64.14
2023-05-10T07:48:58.751Z,64.38
2023-05-10T07:49:59.008Z,64.24
2023-05-10T07:50:58.808Z,64.25
2023-05-10T07:51:58.909Z,63.67
2023-05-10T07:52:59.089Z,65.15
2023-05-10T07:53:58.916Z,63.52
2023-05-10T07:54:59.008Z,63.76
2023-05-10T07:55:58.953Z,64.28
2023-05-10T07:56:59.011Z,65.36
2023-05-10T07:57:59.027Z,64.51
2023-05-10T07:58:59.019Z,64.47
2023-05-10T07:59:59.069Z,64.84
2023-05-10T08:00:59.089Z,64.71
2023-05-10T08:01:59.093Z,65.13
2023-05-10T08:02:59.243Z,65.46
2023-05-10T08:03:59.231Z,64.83
2023-05-10T08:04:59.243Z,65.15
2023-05-10T08:05:59.215Z,65.32
2023-05-10T08:06:59.267Z,66.12
2023-05-10T08:07:59.302Z,65.30
2023-05-10T08:08:59.348Z,64.74
2023-05-10T08:09:59.503Z,63.46
2023-05-10T08:10:59.434Z,64.56
2023-05-10T08:11:59.481Z,64.82
2023-05-10T08:12:59.543Z,64.63
2023-05-10T08:13:59.624Z,65.02
2023-05-10T08:14:59.686Z,64.94
2023-05-10T08:15:59.687Z,64.52
2023-05-10T08:16:59.742Z,63.32
2023-05-10T08:17:59.835Z,64.15
2023-05-10T08:18:59.900Z,65.03
2023-05-10T08:20:00.017Z,64.19
2023-05-10T08:20:59.856Z,64.51
2023-05-10T08:21:59.886Z,64.61
2023-05-10T08:22:59.968Z,64.36
2023-05-10T08:24:00.553Z,65.27
2023-05-10T08:25:00.043Z,65.21
2023-05-10T08:26:00.050Z,64.85
2023-05-10T08:27:00.137Z,65.49
2023-05-10T08:28:00.195Z,65.57
2023-05-10T08:29:00.373Z,64.62
2023-05-10T08:30:00.238Z,64.14
2023-05-10T08:31:00.540Z,64.66
2023-05-10T08:32:00.375Z,65.19
2023-05-10T08:33:00.559Z,66.69
2023-05-10T08:34:00.466Z,66.72
2023-05-10T08:35:00.567Z,66.47
2023-05-10T08:36:00.520Z,65.82
2023-05-10T08:37:00.576Z,65.99
2023-05-10T08:38:00.617Z,66.31
2023-05-10T08:39:00.697Z,65.69
2023-05-10T08:40:00.773Z,66.15
2023-05-10T08:41:00.850Z,65.53
2023-05-10T08:42:00.926Z,65.28
2023-05-10T08:43:00.838Z,65.30
2023-05-10T08:44:00.917Z,66.12
2023-05-10T08:45:00.992Z,66.23
2023-05-10T08:46:01.069Z,66.52
2023-05-10T08:47:01.044Z,67.35
2023-05-10T08:48:01.055Z,66.56
2023-05-10T08:49:02.999Z,65.70
2023-05-10T08:50:01.621Z,65.75
2023-05-10T08:51:02.025Z,66.22
2023-05-10T08:52:01.111Z,66.02
2023-05-10T08:53:01.141Z,66.34
2023-05-10T08:54:02.096Z,67.17
2023-05-10T08:55:01.524Z,65.53
2023-05-10T08:56:01.346Z,65.47
2023-05-10T08:57:01.316Z,65.33
2023-05-10T08:58:01.379Z,64.62
2023-05-10T08:59:01.466Z,63.57
2023-05-10T09:00:01.552Z,63.98
2023-05-10T09:01:01.460Z,64.03
2023-05-10T09:02:01.517Z,64.43
2023-05-10T09:03:01.585Z,64.33
2023-05-10T09:04:01.608Z,64.68
2023-05-10T09:05:01.725Z,65.09
2023-05-10T09:06:01.665Z,64.83
2023-05-10T09:07:01.861Z,64.80
2023-05-10T09:08:01.884Z,65.03
2023-05-10T09:09:01.999Z,63.98
2023-05-10T09:10:02.010Z,64.36
2023-05-10T09:11:01.780Z,63.43
2023-05-10T09:12:01.807Z,63.29
2023-05-10T09:13:01.867Z,64.08
2023-05-10T09:14:01.922Z,63.61
2023-05-10T09:15:01.896Z,63.92
2023-05-10T09:16:09.797Z,64.48
2023-05-10T09:17:02.924Z,63.95
2023-05-10T09:18:01.912Z,63.63
2023-05-10T09:19:01.862Z,63.28
2023-05-10T09:20:01.925Z,63.08
2023-05-10T09:21:01.864Z,63.27
2023-05-10T09:22:01.845Z,63.12
2023-05-10T09:23:01.860Z,63.32
2023-05-10T09:24:01.808Z,63.28
2023-05-10T09:25:01.796Z,63.54
2023-05-10T09:26:02.152Z,63.53
2023-05-10T09:27:01.909Z,63.41
2023-05-10T09:28:01.780Z,63.02
2023-05-10T09:29:01.764Z,62.80
2023-05-10T09:30:01.788Z,62.49
2023-05-10T09:31:01.830Z,62.47
2023-05-10T09:32:01.757Z,62.96
2023-05-10T09:33:01.866Z,62.84
2023-05-10T09:34:01.797Z,62.91
2023-05-10T09:35:01.818Z,63.06
2023-05-10T09:36:02.541Z,63.32
2023-05-10T09:37:01.951Z,63.11
2023-05-10T09:38:01.947Z,62.95
2023-05-10T09:39:01.998Z,62.71
2023-05-10T09:40:02.040Z,62.76
2023-05-10T09:41:02.099Z,62.67
2023-05-10T09:42:02.043Z,62.72
2023-05-10T09:43:02.085Z,61.93
2023-05-10T09:44:02.128Z,61.74
2023-05-10T09:45:02.170Z,61.66
2023-05-10T09:46:03.052Z,61.04
2023-05-10T09:47:02.202Z,60.86
2023-05-10T09:48:02.338Z,60.58
2023-05-10T09:49:02.343Z,60.48
2023-05-10T09:50:02.461Z,60.73
2023-05-10T09:51:02.620Z,60.68
2023-05-10T09:52:03.146Z,60.33
2023-05-10T09:53:02.401Z,60.23
2023-05-10T09:54:03.091Z,60.41
2023-05-10T09:55:02.539Z,60.58
2023-05-10T09:56:02.517Z,60.50
2023-05-10T09:57:02.535Z,60.24
2023-05-10T09:58:02.598Z,60.33
2023-05-10T09:59:02.566Z,59.78
2023-05-10T10:00:02.603Z,59.66
2023-05-10T10:01:02.669Z,59.29
2023-05-10T10:02:02.757Z,59.67
2023-05-10T10:03:02.790Z,60.19
2023-05-10T10:04:02.672Z,60.24
2023-05-10T10:05:02.850Z,59.84
2023-05-10T10:06:02.812Z,59.50
2023-05-10T10:07:02.779Z,59.10
2023-05-10T10:08:02.822Z,59.18
2023-05-10T10:09:02.902Z,59.11
2023-05-10T10:10:02.951Z,58.83
2023-05-10T10:11:04.576Z,59.25
2023-05-10T10:12:03.026Z,59.17
2023-05-10T10:13:02.941Z,59.15
2023-05-10T10:14:02.983Z,59.30
2023-05-10T10:15:02.992Z,59.43
2023-05-10T10:16:03.045Z,59.44
2023-05-10T10:17:07.384Z,59.52
2023-05-10T10:18:04.105Z,59.32
2023-05-10T10:19:03.248Z,58.49
2023-05-10T10:20:03.033Z,58.54
2023-05-10T10:21:03.554Z,59.17
2023-05-10T10:22:03.010Z,58.91
2023-05-10T10:23:03.569Z,58.31
2023-05-10T10:24:03.061Z,57.90
2023-05-10T10:25:03.013Z,58.69
2023-05-10T10:26:03.033Z,58.83
2023-05-10T10:27:02.998Z,58.70
2023-05-10T10:28:03.012Z,58.62
2023-05-10T10:29:03.192Z,58.55
2023-05-10T10:30:03.006Z,58.29
2023-05-10T10:31:03.050Z,58.10
2023-05-10T10:32:02.968Z,58.07
2023-05-10T10:33:10.120Z,58.40
2023-05-10T10:34:04.206Z,58.09
2023-05-10T10:35:03.561Z,57.68
2023-05-10T10:36:02.950Z,57.47
2023-05-10T10:37:03.139Z,57.69
2023-05-10T10:38:02.944Z,57.55
2023-05-10T10:39:03.054Z,57.50
2023-05-10T10:40:02.929Z,57.45
2023-05-10T10:41:02.967Z,57.77
2023-05-10T10:42:02.921Z,57.77
2023-05-10T10:43:02.900Z,58.11
2023-05-10T10:44:02.908Z,58.11
2023-05-10T10:45:02.977Z,57.73
2023-05-10T10:46:03.040Z,57.47
2023-05-10T10:47:03.268Z,57.22
2023-05-10T10:48:03.243Z,57.27
2023-05-10T10:49:03.256Z,57.70
2023-05-10T10:50:03.220Z,58.16
2023-05-10T10:51:03.294Z,58.17
2023-05-10T10:52:03.356Z,58.17
2023-05-10T10:53:03.443Z,57.69
2023-05-10T10:54:03.396Z,57.14
2023-05-10T10:55:03.421Z,57.15
2023-05-10T10:56:03.500Z,56.72
2023-05-10T10:57:03.599Z,56.60
2023-05-10T10:58:03.570Z,56.46
2023-05-10T10:59:03.595Z,56.22
2023-05-10T11:00:03.609Z,56.27
2023-05-10T11:01:03.693Z,56.69
2023-05-10T11:02:03.748Z,56.32
2023-05-10T11:03:03.807Z,56.41
2023-05-10T11:04:03.904Z,56.79
2023-05-10T11:05:03.857Z,57.22
2023-05-10T11:06:03.930Z,57.30
2023-05-10T11:07:04.091Z,57.06
2023-05-10T11:08:04.027Z,57.16
2023-05-10T11:09:04.231Z,57.43
2023-05-10T11:10:04.104Z,56.46
2023-05-10T11:11:04.209Z,56.31
2023-05-10T11:12:04.405Z,56.53
2023-05-10T11:13:04.342Z,56.51
2023-05-10T11:14:04.348Z,56.49
2023-05-10T11:15:04.348Z,56.20
2023-05-10T11:16:04.486Z,56.10
2023-05-10T11:17:04.539Z,56.10
2023-05-10T11:18:04.552Z,55.26
2023-05-10T11:19:04.629Z,54.67
2023-05-10T11:20:04.554Z,54.39
2023-05-10T11:21:04.615Z,53.76
2023-05-10T11:22:04.646Z,53.24
2023-05-10T11:23:04.669Z,53.59
2023-05-10T11:24:04.729Z,53.96
2023-05-10T11:25:04.828Z,53.98
2023-05-10T11:26:04.873Z,53.39
2023-05-10T11:27:04.875Z,53.07
2023-05-10T11:28:04.908Z,54.00
2023-05-10T11:29:05.009Z,53.08
2023-05-10T11:30:05.173Z,53.23
2023-05-10T11:31:05.287Z,53.11
2023-05-10T11:32:05.185Z,53.21
2023-05-10T11:33:05.211Z,53.18
2023-05-10T11:34:06.075Z,53.24
2023-05-10T11:35:05.201Z,53.16
2023-05-10T11:36:05.202Z,53.50
2023-05-10T11:37:05.262Z,53.54
2023-05-10T11:38:05.273Z,53.12
2023-05-10T11:39:05.312Z,52.87
2023-05-10T11:40:05.281Z,53.61
2023-05-10T11:41:05.352Z,54.18
2023-05-10T11:42:05.414Z,54.78
2023-05-10T11:43:05.450Z,54.84
2023-05-10T11:44:05.550Z,54.62
2023-05-10T11:45:05.585Z,54.86
2023-05-10T11:46:05.608Z,54.07
2023-05-10T11:47:05.620Z,53.39
2023-05-10T11:48:05.664Z,53.24
2023-05-10T11:49:05.856Z,53.03
2023-05-10T11:50:05.585Z,53.92
2023-05-10T11:51:05.631Z,54.13
2023-05-10T11:52:05.626Z,54.05
2023-05-10T11:53:05.639Z,53.37
2023-05-10T11:54:05.659Z,52.84
2023-05-10T11:55:05.707Z,52.07
2023-05-10T11:56:05.725Z,52.51
2023-05-10T11:57:05.783Z,53.16
2023-05-10T11:58:05.808Z,53.89
2023-05-10T11:59:05.855Z,54.68
2023-05-10T12:00:05.821Z,54.72
2023-05-10T12:01:05.832Z,54.42
2023-05-10T12:02:05.913Z,54.49
2023-05-10T12:03:06.014Z,54.39
2023-05-10T12:04:06.225Z,54.00
2023-05-10T12:05:06.110Z,54.52
2023-05-10T12:06:06.139Z,55.04
2023-05-10T12:07:06.084Z,53.94
2023-05-10T12:08:06.125Z,54.07
2023-05-10T12:09:06.173Z,53.38
2023-05-10T12:10:06.215Z,54.08
2023-05-10T12:11:06.286Z,53.81
2023-05-10T12:12:06.249Z,53.40
2023-05-10T12:13:06.318Z,53.93
2023-05-10T12:14:06.341Z,54.78
2023-05-10T12:15:06.352Z,56.07
2023-05-10T12:16:06.431Z,54.96
2023-05-10T12:17:06.460Z,54.10
2023-05-10T12:18:06.489Z,54.41
2023-05-10T12:19:06.686Z,53.86
2023-05-10T12:20:06.599Z,53.45
2023-05-10T12:21:06.668Z,52.79
2023-05-10T12:22:07.094Z,53.17
2023-05-10T12:23:06.715Z,53.44
2023-05-10T12:24:06.724Z,54.25
2023-05-10T12:25:06.867Z,54.55
2023-05-10T12:26:06.825Z,55.70
2023-05-10T12:27:06.865Z,54.15
2023-05-10T12:28:06.907Z,54.58
2023-05-10T12:29:06.936Z,54.88
2023-05-10T12:30:06.960Z,55.39
2023-05-10T12:31:07.053Z,54.74
2023-05-10T12:32:07.121Z,55.16
2023-05-10T12:33:07.197Z,55.07
2023-05-10T12:34:07.219Z,55.03
2023-05-10T12:35:07.234Z,55.49
2023-05-10T12:36:07.331Z,55.11
2023-05-10T12:37:07.341Z,55.54
2023-05-10T12:38:07.445Z,55.08
2023-05-10T12:39:07.433Z,55.15
2023-05-10T12:40:07.442Z,55.49
2023-05-10T12:41:07.563Z,55.22
2023-05-10T12:42:08.091Z,56.76
2023-05-10T12:43:07.595Z,56.70
2023-05-10T12:44:08.131Z,56.53
2023-05-10T12:45:07.735Z,56.58
2023-05-10T12:46:08.018Z,57.01
2023-05-10T12:47:07.785Z,57.03
2023-05-10T12:48:07.900Z,56.50
2023-05-10T12:49:09.790Z,57.28
2023-05-10T12:50:07.941Z,56.65
2023-05-10T12:51:08.106Z,57.01
2023-05-10T12:52:08.035Z,56.53
2023-05-10T12:53:08.085Z,56.35
2023-05-10T12:54:09.156Z,56.34
2023-05-10T12:55:08.167Z,56.05
2023-05-10T12:56:08.154Z,55.84
2023-05-10T12:57:08.293Z,55.59
2023-05-10T12:58:08.287Z,55.88
2023-05-10T12:59:08.260Z,55.85
2023-05-10T13:00:08.348Z,55.68
2023-05-10T13:01:08.416Z,56.02
2023-05-10T13:02:10.110Z,55.73
2023-05-10T13:03:08.436Z,56.93